Wetterdaten: Woche 17.06.13 - 23.06.13 (KW25)
Datum Zeit Temp. A. Feuchte A. Luftdruck Regen Wind Richtung Taupunkt Windchill Windben
17.06.2013 23:00 15,5 C 86 % 1015,3 hPa 0,0 l/m 0,0 km/h (0 Bft) N 13,2 C 15,5 C 0,0 km/h (0 Bft)
18.06.2013 00:00 15,8 C 85 % 1015,2 hPa 0,0 l/m 0,9 km/h (0 Bft) N-NO 13,3 C 15,8 C 2,0 km/h (1 Bft)
18.06.2013 01:00 15,1 C 86 % 1015,0 hPa 0,0 l/m 1,3 km/h (1 Bft) N-NO 12,8 C 15,1 C 2,5 km/h (1 Bft)
18.06.2013 02:00 14,8 C 86 % 1014,8 hPa 0,0 l/m 1,8 km/h (1 Bft) NO 12,6 C 14,8 C 4,3 km/h (1 Bft)
18.06.2013 03:00 14,8 C 87 % 1014,6 hPa 0,0 l/m 1,4 km/h (1 Bft) N-NO 12,6 C 14,8 C 4,0 km/h (1 Bft)
18.06.2013 04:00 14,4 C 88 % 1014,8 hPa 0,0 l/m 0,6 km/h (0 Bft) N-NO 12,5 C 14,4 C 2,3 km/h (1 Bft)
18.06.2013 05:00 14,4 C 90 % 1014,5 hPa 0,0 l/m 2,3 km/h (1 Bft) N-NO 12,7 C 14,4 C 4,7 km/h (1 Bft)
18.06.2013 06:00 16,0 C 86 % 1014,8 hPa 0,0 l/m 1,0 km/h (0 Bft) O-NO 13,6 C 16,0 C 2,4 km/h (1 Bft)
18.06.2013 07:00 17,8 C 81 % 1015,0 hPa 0,0 l/m 2,8 km/h (1 Bft) O-NO 14,5 C 17,8 C 6,1 km/h (2 Bft)
18.06.2013 08:00 19,5 C 76 % 1015,6 hPa 0,0 l/m 3,5 km/h (1 Bft) O 15,1 C 19,5 C 7,1 km/h (2 Bft)
18.06.2013 09:00 21,2 C 73 % 1015,6 hPa 0,0 l/m 4,3 km/h (1 Bft) NO 16,1 C 21,2 C 9,1 km/h (2 Bft)
18.06.2013 10:00 21,7 C 74 % 1015,8 hPa 0,0 l/m 5,4 km/h (1 Bft) NO 16,9 C 21,7 C 10,5 km/h (2 Bft)
18.06.2013 11:00 23,5 C 72 % 1015,8 hPa 0,0 l/m 4,3 km/h (1 Bft) N 18,0 C 23,5 C 9,3 km/h (2 Bft)
18.06.2013 12:00 25,0 C 69 % 1015,8 hPa 0,0 l/m 4,6 km/h (1 Bft) N-NO 19,0 C 25,0 C 9,9 km/h (2 Bft)
18.06.2013 13:00 26,1 C 68 % 1016,1 hPa 0,0 l/m 4,9 km/h (1 Bft) N-NO 19,8 C 26,1 C 10,2 km/h (2 Bft)
18.06.2013 14:00 27,0 C 65 % 1016,2 hPa 0,0 l/m 4,7 km/h (1 Bft) NO 19,8 C 27,0 C 9,5 km/h (2 Bft)
18.06.2013 15:00 27,1 C 67 % 1016,1 hPa 0,0 l/m 5,9 km/h (2 Bft) NO 20,5 C 27,1 C 10,9 km/h (2 Bft)
18.06.2013 16:00 27,6 C 66 % 1015,9 hPa 0,0 l/m 5,5 km/h (2 Bft) N-NO 20,6 C 27,6 C 9,9 km/h (2 Bft)
18.06.2013 17:00 27,7 C 65 % 1015,7 hPa 0,0 l/m 5,4 km/h (2 Bft) N 20,5 C 27,7 C 8,7 km/h (2 Bft)
18.06.2013 18:00 27,6 C 65 % 1015,5 hPa 0,0 l/m 6,4 km/h (2 Bft) N 20,4 C 27,6 C 6,4 km/h (2 Bft)
18.06.2013 19:00 26,9 C 66 % 1015,8 hPa 0,0 l/m 2,9 km/h (1 Bft) O-NO 20,0 C 26,9 C 6,8 km/h (2 Bft)
18.06.2013 20:00 25,3 C 69 % 1016,0 hPa 0,0 l/m 1,1 km/h (1 Bft) O-NO 19,2 C 25,3 C 2,9 km/h (1 Bft)
18.06.2013 21:00 22,4 C 77 % 1016,1 hPa 0,0 l/m 0,3 km/h (0 Bft) N 18,2 C 22,4 C 0,9 km/h (0 Bft)
18.06.2013 22:00 21,2 C 80 % 1016,1 hPa 0,0 l/m 0,0 km/h (0 Bft) N 17,7 C 21,2 C 0,0 km/h (0 Bft)
18.06.2013 23:00 19,4 C 85 % 1016,5 hPa 0,0 l/m 0,0 km/h (0 Bft) N 16,8 C 19,4 C 0,0 km/h (0 Bft)
19.06.2013 00:00 18,3 C 88 % 1016,5 hPa 0,0 l/m 0,0 km/h (0 Bft) N 16,3 C 18,3 C 0,0 km/h (0 Bft)
19.06.2013 01:00 17,0 C 91 % 1016,4 hPa 0,0 l/m 0,0 km/h (0 Bft) N 15,5 C 17,0 C 0,0 km/h (0 Bft)
19.06.2013 02:00 16,9 C 92 % 1016,2 hPa 0,0 l/m 0,0 km/h (0 Bft) N 15,5 C 16,9 C 0,0 km/h (0 Bft)
19.06.2013 03:00 16,2 C 93 % 1015,7 hPa 0,0 l/m 0,0 km/h (0 Bft) N 15,0 C 16,2 C 0,0 km/h (0 Bft)
19.06.2013 04:00 16,2 C 94 % 1015,6 hPa 0,0 l/m 0,0 km/h (0 Bft) N 15,1 C 16,2 C 0,0 km/h (0 Bft)
19.06.2013 05:00 16,5 C 94 % 1015,4 hPa 0,0 l/m 0,5 km/h (0 Bft) O 15,6 C 16,5 C 1,3 km/h (1 Bft)
19.06.2013 06:00 20,1 C 87 % 1015,1 hPa 0,0 l/m 2,2 km/h (1 Bft) O-SO 17,8 C 20,1 C 6,4 km/h (2 Bft)
19.06.2013 07:00 22,6 C 81 % 1015,0 hPa 0,0 l/m 2,7 km/h (1 Bft) S 19,1 C 22,6 C 6,7 km/h (2 Bft)
19.06.2013 08:00 24,8 C 77 % 1014,9 hPa 0,0 l/m 2,5 km/h (1 Bft) O-SO 20,6 C 24,8 C 6,3 km/h (2 Bft)
19.06.2013 09:00 27,2 C 73 % 1014,9 hPa 0,0 l/m 3,5 km/h (1 Bft) O-SO 21,8 C 27,2 C 8,3 km/h (2 Bft)
19.06.2013 10:00 29,3 C 68 % 1014,4 hPa 0,0 l/m 5,2 km/h (1 Bft) O-SO 22,8 C 29,3 C 12,0 km/h (2 Bft)
19.06.2013 11:00 30,5 C 63 % 1014,4 hPa 0,0 l/m 4,9 km/h (1 Bft) SW 22,6 C 30,5 C 11,0 km/h (2 Bft)
19.06.2013 12:00 31,5 C 57 % 1013,7 hPa 0,0 l/m 5,7 km/h (2 Bft) O-NO 22,0 C 31,5 C 13,4 km/h (3 Bft)
19.06.2013 13:00 31,5 C 57 % 1013,1 hPa 0,0 l/m 6,2 km/h (2 Bft) O-SO 21,8 C 31,5 C 13,7 km/h (3 Bft)
19.06.2013 14:00 32,0 C 54 % 1012,8 hPa 0,0 l/m 6,6 km/h (2 Bft) O 21,4 C 32,0 C 14,8 km/h (3 Bft)
19.06.2013 15:00 32,6 C 51 % 1012,5 hPa 0,0 l/m 5,7 km/h (2 Bft) SO 21,2 C 32,6 C 12,1 km/h (2 Bft)
19.06.2013 16:00 33,1 C 50 % 1012,1 hPa 0,0 l/m 5,2 km/h (1 Bft) SO 21,1 C 33,1 C 11,4 km/h (2 Bft)
19.06.2013 17:00 32,9 C 50 % 1011,6 hPa 0,0 l/m 4,6 km/h (1 Bft) SO 20,9 C 32,9 C 10,9 km/h (2 Bft)
19.06.2013 18:00 31,7 C 52 % 1011,1 hPa 0,0 l/m 3,0 km/h (1 Bft) O-SO 20,6 C 31,7 C 7,0 km/h (2 Bft)
19.06.2013 19:00 30,1 C 63 % 1010,7 hPa 0,0 l/m 0,4 km/h (0 Bft) O-NO 22,3 C 30,1 C 0,9 km/h (0 Bft)
19.06.2013 20:00 29,4 C 66 % 1010,1 hPa 0,0 l/m 1,7 km/h (1 Bft) O 22,4 C 29,4 C 2,3 km/h (1 Bft)
19.06.2013 21:00 27,7 C 72 % 1009,7 hPa 0,0 l/m 1,3 km/h (1 Bft) O 22,1 C 27,7 C 1,6 km/h (1 Bft)
19.06.2013 22:00 24,0 C 85 % 1010,4 hPa 0,0 l/m 0,0 km/h (0 Bft) N 21,3 C 24,0 C 0,0 km/h (0 Bft)
19.06.2013 23:00 23,4 C 87 % 1009,8 hPa 0,0 l/m 0,2 km/h (0 Bft) N 21,1 C 23,4 C 1,1 km/h (0 Bft)
20.06.2013 00:00 23,4 C 80 % 1011,3 hPa 0,0 l/m 11,3 km/h (2 Bft) N-NW 19,7 C 22,1 C 21,7 km/h (4 Bft)
20.06.2013 01:00 19,9 C 87 % 1011,4 hPa 0,2 l/m 13,5 km/h (3 Bft) NO 17,7 C 17,5 C 23,0 km/h (4 Bft)
20.06.2013 02:00 19,5 C 87 % 1011,7 hPa 0,0 l/m 12,2 km/h (2 Bft) NO 17,2 C 17,5 C 24,8 km/h (4 Bft)
20.06.2013 03:00 19,3 C 87 % 1012,5 hPa 0,0 l/m 10,0 km/h (2 Bft) N-NO 17,0 C 17,8 C 19,3 km/h (3 Bft)
20.06.2013 04:00 18,7 C 89 % 1012,3 hPa 0,0 l/m 6,3 km/h (2 Bft) O-NO 16,8 C 18,4 C 12,9 km/h (3 Bft)
20.06.2013 05:00 18,6 C 90 % 1012,2 hPa 0,0 l/m 0,8 km/h (0 Bft) S 16,9 C 18,6 C 2,5 km/h (1 Bft)
20.06.2013 06:00 19,4 C 89 % 1012,0 hPa 0,0 l/m 1,0 km/h (0 Bft) W-NW 17,5 C 19,4 C 2,7 km/h (1 Bft)
20.06.2013 07:00 20,4 C 86 % 1012,6 hPa 0,0 l/m 3,0 km/h (1 Bft) N-NW 18,0 C 20,4 C 6,0 km/h (2 Bft)
20.06.2013 08:00 21,9 C 82 % 1012,5 hPa 0,0 l/m 2,4 km/h (1 Bft) NW 18,7 C 21,9 C 5,3 km/h (1 Bft)
20.06.2013 09:00 23,4 C 80 % 1012,5 hPa 0,0 l/m 3,8 km/h (1 Bft) N-NO 19,6 C 23,4 C 7,6 km/h (2 Bft)
20.06.2013 10:00 24,3 C 78 % 1012,5 hPa 0,0 l/m 3,6 km/h (1 Bft) NO 20,3 C 24,3 C 7,3 km/h (2 Bft)
20.06.2013 11:00 24,6 C 79 % 1012,7 hPa 0,0 l/m 5,7 km/h (2 Bft) NO 20,7 C 24,6 C 11,2 km/h (2 Bft)
20.06.2013 12:00 25,6 C 76 % 1012,4 hPa 0,0 l/m 5,6 km/h (2 Bft) NO 21,1 C 25,6 C 10,8 km/h (2 Bft)
20.06.2013 13:00 26,6 C 76 % 1011,7 hPa 0,0 l/m 6,4 km/h (2 Bft) N-NO 21,9 C 26,5 C 13,3 km/h (3 Bft)
20.06.2013 14:00 27,1 C 74 % 1011,0 hPa 0,0 l/m 8,2 km/h (2 Bft) O-NO 22,1 C 26,8 C 16,4 km/h (3 Bft)
20.06.2013 15:00 27,4 C 73 % 1010,6 hPa 0,0 l/m 7,6 km/h (2 Bft) N-NO 22,0 C 27,1 C 15,3 km/h (3 Bft)
20.06.2013 16:00 27,7 C 72 % 1010,1 hPa 0,0 l/m 6,8 km/h (2 Bft) O 22,2 C 27,6 C 13,8 km/h (3 Bft)
20.06.2013 17:00 26,7 C 78 % 1010,2 hPa 0,0 l/m 4,5 km/h (1 Bft) N-NO 22,6 C 26,7 C 9,3 km/h (2 Bft)
20.06.2013 18:00 25,0 C 76 % 1011,3 hPa 0,0 l/m 4,8 km/h (1 Bft) W 20,3 C 24,6 C 11,6 km/h (2 Bft)
20.06.2013 19:00 19,2 C 89 % 1009,5 hPa 0,6 l/m 13,9 km/h (3 Bft) N-NO 17,3 C 16,8 C 24,3 km/h (4 Bft)
20.06.2013 20:00 19,5 C 91 % 1010,1 hPa 0,0 l/m 2,4 km/h (1 Bft) NO 18,0 C 19,5 C 6,7 km/h (2 Bft)
20.06.2013 21:00 19,8 C 90 % 1008,6 hPa 0,0 l/m 4,6 km/h (1 Bft) NW 18,2 C 19,5 C 9,2 km/h (2 Bft)
20.06.2013 22:00 19,7 C 92 % 1009,1 hPa 0,0 l/m 0,4 km/h (0 Bft) N-NW 18,3 C 19,7 C 0,9 km/h (0 Bft)
20.06.2013 23:00 19,7 C 93 % 1009,1 hPa 0,0 l/m 0,6 km/h (0 Bft) S-SW 18,4 C 19,7 C 1,7 km/h (1 Bft)
21.06.2013 00:00 19,4 C 93 % 1008,7 hPa 0,0 l/m 0,3 km/h (0 Bft) S-SO 18,2 C 19,4 C 0,8 km/h (0 Bft)
21.06.2013 01:00 19,4 C 93 % 1007,8 hPa 0,0 l/m 0,0 km/h (0 Bft) N 18,2 C 19,4 C 0,0 km/h (0 Bft)
21.06.2013 02:00 19,4 C 93 % 1007,7 hPa 0,0 l/m 0,0 km/h (0 Bft) N 18,2 C 19,4 C 0,0 km/h (0 Bft)
21.06.2013 03:00 19,4 C 93 % 1007,3 hPa 0,0 l/m 0,0 km/h (0 Bft) N 18,2 C 19,4 C 0,0 km/h (0 Bft)
21.06.2013 04:00 19,4 C 93 % 1007,0 hPa 0,0 l/m 0,0 km/h (0 Bft) N 18,2 C 19,4 C 0,0 km/h (0 Bft)
21.06.2013 05:00 19,4 C 93 % 1006,7 hPa 0,0 l/m 0,0 km/h (0 Bft) N 18,2 C 19,4 C 0,0 km/h (0 Bft)
21.06.2013 06:00 19,4 C 93 % 1006,7 hPa 0,0 l/m 0,0 km/h (0 Bft) N 18,2 C 19,4 C 0,0 km/h (0 Bft)
21.06.2013 07:00 19,3 C 92 % 1007,0 hPa 0,0 l/m 2,1 km/h (1 Bft) S 18,0 C 18,9 C 4,6 km/h (1 Bft)
21.06.2013 08:00 18,1 C 87 % 1008,5 hPa 0,0 l/m 8,8 km/h (2 Bft) SW 15,9 C 17,2 C 18,4 km/h (3 Bft)
21.06.2013 09:00 18,1 C 85 % 1008,5 hPa 0,0 l/m 8,0 km/h (2 Bft) SW 15,6 C 17,3 C 18,5 km/h (3 Bft)
21.06.2013 10:00 19,5 C 78 % 1008,7 hPa 0,0 l/m 9,5 km/h (2 Bft) W-SW 15,6 C 18,3 C 21,0 km/h (4 Bft)
21.06.2013 11:00 20,3 C 74 % 1009,0 hPa 0,0 l/m 8,5 km/h (2 Bft) S-SW 15,5 C 19,4 C 19,4 km/h (3 Bft)
21.06.2013 12:00 22,0 C 65 % 1009,2 hPa 0,0 l/m 11,3 km/h (2 Bft) SW 15,1 C 20,5 C 24,3 km/h (4 Bft)
21.06.2013 13:00 21,6 C 64 % 1009,6 hPa 0,0 l/m 9,2 km/h (2 Bft) SW 14,6 C 20,6 C 20,0 km/h (4 Bft)
21.06.2013 14:00 21,9 C 61 % 1010,0 hPa 0,0 l/m 7,7 km/h (2 Bft) SW 14,2 C 21,5 C 19,7 km/h (3 Bft)
21.06.2013 15:00 22,4 C 61 % 1010,2 hPa 0,0 l/m 8,8 km/h (2 Bft) SW 14,4 C 21,6 C 20,5 km/h (4 Bft)
21.06.2013 16:00 22,9 C 57 % 1010,4 hPa 0,0 l/m 9,8 km/h (2 Bft) SW 14,0 C 22,0 C 20,8 km/h (4 Bft)
21.06.2013 17:00 22,8 C 59 % 1010,5 hPa 0,0 l/m 9,6 km/h (2 Bft) W-SW 14,3 C 21,8 C 20,1 km/h (4 Bft)
21.06.2013 18:00 22,1 C 61 % 1010,7 hPa 0,0 l/m 8,3 km/h (2 Bft) W-SW 14,3 C 21,4 C 19,3 km/h (3 Bft)
21.06.2013 19:00 22,2 C 63 % 1011,0 hPa 0,0 l/m 6,8 km/h (2 Bft) S-SW 14,8 C 21,9 C 16,1 km/h (3 Bft)
21.06.2013 20:00 21,4 C 64 % 1011,4 hPa 0,0 l/m 6,1 km/h (2 Bft) SW 14,4 C 21,3 C 14,9 km/h (3 Bft)
21.06.2013 21:00 19,8 C 71 % 1011,9 hPa 0,0 l/m 4,2 km/h (1 Bft) SW 14,4 C 19,8 C 11,0 km/h (2 Bft)
21.06.2013 22:00 19,0 C 74 % 1012,8 hPa 0,0 l/m 4,6 km/h (1 Bft) W 14,3 C 19,0 C 11,9 km/h (2 Bft)
21.06.2013 23:00 17,3 C 81 % 1013,3 hPa 0,0 l/m 2,3 km/h (1 Bft) S-SW 14,1 C 17,3 C 7,2 km/h (2 Bft)
22.06.2013 00:00 16,3 C 85 % 1013,8 hPa 0,0 l/m 0,4 km/h (0 Bft) S-SW 13,8 C 16,3 C 2,0 km/h (1 Bft)
22.06.2013 01:00 16,8 C 85 % 1013,8 hPa 0,0 l/m 2,9 km/h (1 Bft) S 14,3 C 16,8 C 6,0 km/h (2 Bft)
22.06.2013 02:00 16,4 C 86 % 1013,7 hPa 0,0 l/m 3,2 km/h (1 Bft) S 14,1 C 16,4 C 7,5 km/h (2 Bft)
22.06.2013 03:00 16,4 C 85 % 1013,7 hPa 0,0 l/m 4,4 km/h (1 Bft) SW 13,8 C 16,4 C 9,4 km/h (2 Bft)
22.06.2013 04:00 16,3 C 85 % 1013,9 hPa 0,0 l/m 4,7 km/h (1 Bft) S-SW 13,8 C 16,3 C 5,2 km/h (1 Bft)
22.06.2013 05:00 15,1 C 88 % 1013,9 hPa 0,0 l/m 2,6 km/h (1 Bft) S-SW 13,1 C 15,1 C 4,0 km/h (1 Bft)
22.06.2013 06:00 15,2 C 88 % 1014,1 hPa 0,0 l/m 1,8 km/h (1 Bft) S-SW 13,2 C 15,2 C 2,1 km/h (1 Bft)
22.06.2013 07:00 16,8 C 82 % 1014,0 hPa 0,0 l/m 4,7 km/h (1 Bft) SW 13,7 C 16,8 C 12,0 km/h (2 Bft)
22.06.2013 08:00 18,2 C 77 % 1014,0 hPa 0,0 l/m 6,7 km/h (2 Bft) SW 14,1 C 17,9 C 14,1 km/h (3 Bft)
22.06.2013 09:00 18,9 C 74 % 1014,1 hPa 0,0 l/m 6,5 km/h (2 Bft) SW 14,1 C 18,7 C 16,4 km/h (3 Bft)
22.06.2013 10:00 19,9 C 70 % 1013,7 hPa 0,0 l/m 6,9 km/h (2 Bft) S-SW 14,3 C 19,6 C 15,2 km/h (3 Bft)
22.06.2013 11:00 20,3 C 67 % 1013,8 hPa 0,0 l/m 8,1 km/h (2 Bft) SW 13,9 C 19,7 C 17,6 km/h (3 Bft)
22.06.2013 12:00 21,0 C 65 % 1013,5 hPa 0,0 l/m 6,3 km/h (2 Bft) S-SW 14,2 C 20,7 C 14,6 km/h (3 Bft)
22.06.2013 13:00 21,9 C 62 % 1013,1 hPa 0,0 l/m 7,5 km/h (2 Bft) SW 14,2 C 21,5 C 15,0 km/h (3 Bft)
22.06.2013 14:00 21,5 C 64 % 1012,8 hPa 0,0 l/m 5,9 km/h (2 Bft) SW 14,4 C 21,2 C 12,6 km/h (3 Bft)
22.06.2013 15:00 22,1 C 64 % 1012,3 hPa 0,0 l/m 6,1 km/h (2 Bft) S-SW 14,9 C 21,9 C 13,7 km/h (3 Bft)
22.06.2013 16:00 22,6 C 62 % 1011,7 hPa 0,0 l/m 7,7 km/h (2 Bft) S-SW 14,9 C 22,2 C 15,7 km/h (3 Bft)
22.06.2013 17:00 22,6 C 61 % 1011,0 hPa 0,0 l/m 7,8 km/h (2 Bft) SW 14,6 C 22,2 C 15,6 km/h (3 Bft)
22.06.2013 18:00 23,2 C 59 % 1010,5 hPa 0,0 l/m 9,2 km/h (2 Bft) S 14,6 C 22,4 C 19,4 km/h (3 Bft)
22.06.2013 19:00 22,6 C 59 % 1010,2 hPa 0,0 l/m 8,9 km/h (2 Bft) SW 14,2 C 21,9 C 18,8 km/h (3 Bft)
22.06.2013 20:00 20,9 C 65 % 1009,9 hPa 0,0 l/m 5,8 km/h (2 Bft) SW 14,1 C 20,8 C 12,4 km/h (2 Bft)
22.06.2013 21:00 20,5 C 67 % 1010,0 hPa 0,0 l/m 4,3 km/h (1 Bft) S-SW 14,1 C 20,5 C 9,3 km/h (2 Bft)
22.06.2013 22:00 20,0 C 70 % 1010,2 hPa 0,0 l/m 5,7 km/h (2 Bft) SW 14,3 C 20,0 C 12,8 km/h (3 Bft)
22.06.2013 23:00 18,4 C 80 % 1010,4 hPa 0,0 l/m 2,2 km/h (1 Bft) NW 14,9 C 18,4 C 6,0 km/h (2 Bft)
23.06.2013 00:00 16,9 C 88 % 1010,2 hPa 0,0 l/m 0,1 km/h (0 Bft) N 14,9 C 16,9 C 0,4 km/h (0 Bft)
23.06.2013 01:00 16,7 C 90 % 1010,1 hPa 0,0 l/m 0,3 km/h (0 Bft) S-SO 15,1 C 16,7 C 1,2 km/h (1 Bft)
23.06.2013 02:00 16,7 C 90 % 1009,6 hPa 0,0 l/m 0,5 km/h (0 Bft) S-SO 14,9 C 16,7 C 2,5 km/h (1 Bft)
23.06.2013 03:00 16,4 C 90 % 1009,3 hPa 0,0 l/m 0,6 km/h (0 Bft) S 14,7 C 16,4 C 1,9 km/h (1 Bft)
23.06.2013 04:00 15,8 C 89 % 1009,2 hPa 0,0 l/m 0,8 km/h (0 Bft) S 14,0 C 15,8 C 2,8 km/h (1 Bft)
23.06.2013 05:00 15,7 C 86 % 1009,1 hPa 0,0 l/m 1,9 km/h (1 Bft) S-SW 13,3 C 15,7 C 5,3 km/h (1 Bft)
23.06.2013 06:00 16,2 C 84 % 1009,1 hPa 0,0 l/m 5,3 km/h (1 Bft) SW 13,5 C 16,2 C 10,5 km/h (2 Bft)
23.06.2013 07:00 16,1 C 83 % 1009,5 hPa 0,0 l/m 6,9 km/h (2 Bft) SW 13,1 C 15,8 C 15,2 km/h (3 Bft)
23.06.2013 08:00 14,8 C 84 % 1010,2 hPa 0,0 l/m 3,5 km/h (1 Bft) SW 12,1 C 14,8 C 9,8 km/h (2 Bft)
23.06.2013 09:00 14,0 C 88 % 1010,4 hPa 0,4 l/m 4,5 km/h (1 Bft) SW 12,0 C 14,0 C 10,3 km/h (2 Bft)
23.06.2013 10:00 15,5 C 81 % 1010,7 hPa 0,0 l/m 5,7 km/h (2 Bft) SW 12,3 C 15,4 C 12,9 km/h (3 Bft)
23.06.2013 11:00 17,8 C 71 % 1010,5 hPa 0,0 l/m 7,3 km/h (2 Bft) SW 12,5 C 17,3 C 16,8 km/h (3 Bft)
23.06.2013 12:00 18,6 C 67 % 1010,6 hPa 0,0 l/m 8,3 km/h (2 Bft) S-SW 12,3 C 17,8 C 18,4 km/h (3 Bft)
23.06.2013 13:00 19,0 C 61 % 1010,6 hPa 0,0 l/m 7,7 km/h (2 Bft) SW 11,2 C 18,3 C 16,6 km/h (3 Bft)
23.06.2013 14:00 19,8 C 58 % 1010,6 hPa 0,0 l/m 8,1 km/h (2 Bft) S 11,4 C 19,0 C 19,3 km/h (3 Bft)
23.06.2013 15:00 19,8 C 58 % 1010,7 hPa 0,0 l/m 8,3 km/h (2 Bft) SW 11,2 C 19,0 C 18,4 km/h (3 Bft)
23.06.2013 16:00 19,6 C 60 % 1010,8 hPa 0,0 l/m 7,4 km/h (2 Bft) SW 11,7 C 19,1 C 16,9 km/h (3 Bft)
23.06.2013 17:00 20,5 C 57 % 1010,8 hPa 0,0 l/m 6,5 km/h (2 Bft) SW 11,5 C 20,3 C 16,6 km/h (3 Bft)
23.06.2013 18:00 15,9 C 82 % 1011,6 hPa 1,0 l/m 3,1 km/h (1 Bft) W-SW 12,8 C 15,7 C 8,4 km/h (2 Bft)
23.06.2013 19:00 17,6 C 77 % 1011,5 hPa 0,0 l/m 3,6 km/h (1 Bft) S-SW 13,5 C 17,6 C 8,6 km/h (2 Bft)
23.06.2013 20:00 17,6 C 74 % 1011,6 hPa 0,0 l/m 3,1 km/h (1 Bft) W-SW 13,0 C 17,6 C 8,3 km/h (2 Bft)
23.06.2013 21:00 15,9 C 79 % 1011,9 hPa 0,0 l/m 1,1 km/h (1 Bft) W-SW 12,2 C 15,9 C 4,3 km/h (1 Bft)
23.06.2013 22:00 14,3 C 82 % 1012,6 hPa 0,0 l/m 1,6 km/h (1 Bft) S-SW 11,2 C 14,3 C 4,9 km/h (1 Bft)
23.06.2013 23:00 13,4 C 85 % 1012,9 hPa 0,0 l/m 0,8 km/h (0 Bft) SO 10,9 C 13,4 C 3,3 km/h (1 Bft)
Min-Datum _ 23.06.13 19.06.13 21.06.13 - 17.06.13 - 23.06.13 23.06.13 17.06.13
_ Min-Zeit 23:55 15:50 05:05 - 23:00 - 23:55 23:55 23:00
Minimum _ 12,9 C 47 % 1006,6 hPa - 0,0 km/h (0 Bft) - 10,6 C 12,9 C 0,0 km/h (0 Bft)
Max-Datum _ 19.06.13 19.06.13 18.06.13 23.06.13 20.06.13 - 19.06.13 19.06.13 20.06.13
_ Max-Zeit 16:50 05:30 23:45 18:10 00:15 - 19:45 16:50 00:15
Maximum _ 33,7 C 96 % 1016,6 hPa 1,0 l/m 25,0 km/h
N-NW (4 Bft)
- 23,5 C 33,7 C 40,2 km/h
N (6 Bft)
Durchschnitt _ 20,9 C 77 % 1012,1 hPa #2,2 l/m 4,3 km/h (1 Bft) SW 16,4 C 20,7 C 9,4 km/h (2 Bft)